Time;durP1;ratioP1;P1;durP2;ratioP2;P2;SDS_P1;SDS_P2;PMS_P1;PMS_P2;Temp;Humidity;BMP_temperature;BMP_pressure;BME280_temperature;BME280_humidity;BME280_pressure;Samples;Min_cycle;Max_cycle;Signal;HPM_P1;HPM_P2
2023/09/09 00:00:47;;;;;;;13.83;8.80;;;15.60;91.90;;;15.16;85.93;98073.63;5038129;28;21006;-78
2023/09/09 00:03:14;;;;;;;10.87;9.77;;;15.50;92.00;;;14.63;86.52;98005.69;5039313;28;20581;-76
2023/09/09 00:05:41;;;;;;;11.03;8.90;;;15.40;92.20;;;14.93;87.46;98064.47;5036193;28;20517;-79
2023/09/09 00:08:09;;;;;;;9.53;8.63;;;15.30;92.70;;;14.92;88.38;98089.22;5041926;28;20504;-80
2023/09/09 00:10:39;;;;;;;9.20;8.33;;;15.30;93.00;;;14.90;89.21;98092.16;5038535;28;20458;-76
2023/09/09 00:13:09;;;;;;;11.13;9.07;;;15.20;93.10;;;14.98;91.83;98093.69;5043527;28;20460;-75
2023/09/09 00:15:36;;;;;;;9.23;8.43;;;15.20;94.40;;;15.07;92.53;98085.94;5054203;28;20454;-74
2023/09/09 00:18:04;;;;;;;10.23;8.50;;;15.30;95.40;;;15.88;89.65;98070.47;5043556;28;20471;-76
2023/09/09 00:20:33;;;;;;;10.70;8.60;;;15.70;96.30;;;15.61;87.50;98039.25;5059574;28;20474;-78
2023/09/09 00:23:02;;;;;;;9.23;8.07;;;15.90;93.70;;;15.96;86.04;98087.25;5046999;28;20470;-74
2023/09/09 00:25:30;;;;;;;9.77;8.87;;;16.00;92.80;;;15.86;84.21;98084.31;5041198;28;20465;-76
2023/09/09 00:27:58;;;;;;;8.90;8.10;;;16.10;91.70;;;15.89;82.84;98058.50;5043662;28;20543;-76
2023/09/09 00:30:25;;;;;;;9.50;8.27;;;16.20;91.30;;;15.79;82.17;98080.97;5046783;28;20473;-77
2023/09/09 00:32:53;;;;;;;9.57;8.57;;;16.00;90.70;;;15.68;84.43;98091.66;5042577;28;20479;-75
2023/09/09 00:35:20;;;;;;;9.23;8.33;;;15.80;91.30;;;15.40;83.93;98087.13;5039383;28;20501;-75
2023/09/09 00:37:47;;;;;;;9.17;8.37;;;15.60;91.10;;;15.12;84.56;98083.34;5042031;28;20471;-79
2023/09/09 00:40:15;;;;;;;9.73;8.80;;;15.40;91.30;;;14.96;85.81;98096.66;5044425;28;20462;-76
2023/09/09 00:42:42;;;;;;;10.53;8.90;;;15.30;91.40;;;14.87;86.85;98092.66;5042588;28;20477;-76
2023/09/09 00:45:11;;;;;;;9.47;8.57;;;15.20;92.00;;;14.90;87.82;98097.63;5045183;28;20451;-74
2023/09/09 00:47:39;;;;;;;14.43;10.03;;;15.10;92.40;;;14.96;89.99;98085.78;5043587;28;20457;-74
2023/09/09 00:50:11;;;;;;;13.60;9.67;;;15.10;93.70;;;14.96;87.71;98099.38;5041346;28;20490;-78
2023/09/09 00:52:39;;;;;;;10.03;9.03;;;15.10;93.40;;;14.85;87.90;98090.16;5041217;28;20445;-79
2023/09/09 00:55:08;;;;;;;10.83;8.37;;;15.10;93.10;;;14.82;88.98;98093.38;5045682;28;20505;-75
2023/09/09 00:57:35;;;;;;;9.93;9.03;;;15.00;93.60;;;14.78;88.64;98088.66;5046847;28;20453;-75
2023/09/09 01:00:09;;;;;;;9.63;8.73;;;15.00;93.70;;;14.59;88.69;98069.75;5047529;28;20510;-77
2023/09/09 01:02:38;;;;;;;11.30;9.00;;;14.90;93.40;;;14.48;88.28;98079.59;5040684;28;20463;-74
2023/09/09 01:05:07;;;;;;;10.13;9.03;;;14.80;93.10;;;14.50;88.98;98082.09;5046564;28;20520;-74
2023/09/09 01:07:45;;;;;;;11.00;9.50;;;14.80;93.40;;;14.48;89.32;98086.94;5054786;28;20485;-77
2023/09/09 01:10:14;;;;;;;13.27;9.90;;;14.80;93.40;;;14.37;89.84;98080.44;5037884;28;20495;-74
2023/09/09 01:12:42;;;;;;;10.73;9.43;;;14.70;93.70;;;14.27;90.83;98083.78;5040561;28;20543;-80
2023/09/09 01:15:10;;;;;;;10.80;9.70;;;14.60;94.10;;;14.19;91.53;98086.88;5052812;28;20479;-74
2023/09/09 01:17:40;;;;;;;11.73;10.60;;;14.60;94.10;;;14.02;92.00;98072.09;5045392;28;20473;-77
2023/09/09 01:20:13;;;;;;;13.10;9.87;;;14.50;94.50;;;14.04;92.88;98082.75;5053362;28;20486;-80
2023/09/09 01:22:44;;;;;;;15.80;10.57;;;14.40;95.00;;;14.12;92.31;98078.84;5037655;28;20453;-81
2023/09/09 01:25:13;;;;;;;13.83;10.90;;;14.40;95.20;;;14.02;92.39;98085.69;5037434;28;20442;-75
2023/09/09 01:27:40;;;;;;;11.83;10.00;;;14.40;94.80;;;13.99;92.81;98085.31;5037648;28;21161;-76
2023/09/09 01:30:11;;;;;;;13.53;11.13;;;14.40;95.10;;;13.98;93.12;98086.38;5046745;28;20922;-74
2023/09/09 01:32:38;;;;;;;17.33;10.60;;;14.30;95.40;;;13.97;92.75;98090.16;5043856;28;20453;-76
2023/09/09 01:35:06;;;;;;;16.10;10.50;;;14.30;95.00;;;14.01;94.45;98092.19;5042992;28;20459;-76
2023/09/09 01:37:34;;;;;;;13.70;10.60;;;14.30;96.00;;;13.99;95.05;98071.72;5040083;28;20547;-76
2023/09/09 01:40:09;;;;;;;15.77;11.30;;;14.30;97.20;;;14.16;95.05;98099.03;5037686;28;20445;-77
2023/09/09 01:42:38;;;;;;;17.70;12.27;;;14.30;97.80;;;13.99;93.09;98066.31;5042337;28;20511;-74
2023/09/09 01:45:06;;;;;;;11.63;10.00;;;14.30;96.70;;;14.79;92.53;98102.03;5042854;28;20454;-81
2023/09/09 01:47:33;;;;;;;17.27;11.13;;;14.90;96.70;;;14.87;90.92;98087.22;5041301;28;20540;-78
2023/09/09 01:50:01;;;;;;;18.40;12.10;;;15.00;94.70;;;14.90;88.33;98094.88;5041510;28;20515;-79
2023/09/09 01:52:28;;;;;;;17.43;11.33;;;15.10;93.40;;;14.80;88.74;98102.88;5038945;28;20959;-77
2023/09/09 01:54:56;;;;;;;15.23;10.23;;;14.90;93.40;;;14.90;88.04;98089.44;5042778;28;20453;-75
2023/09/09 01:57:26;;;;;;;15.40;10.50;;;15.00;93.60;;;15.17;89.97;98086.16;5055512;28;20450;-79
2023/09/09 01:59:54;;;;;;;14.73;10.00;;;15.00;94.50;;;16.13;83.37;98092.66;5041408;28;20978;-78
2023/09/09 02:02:21;;;;;;;13.97;10.53;;;16.00;92.10;;;15.99;81.55;98085.91;5038427;28;20934;-75
2023/09/09 02:04:50;;;;;;;18.80;11.23;;;16.20;90.60;;;15.58;81.32;98075.16;5041440;28;20470;-75
2023/09/09 02:07:17;;;;;;;13.93;11.17;;;16.00;90.20;;;15.39;82.58;98096.34;5041038;28;20459;-75
2023/09/09 02:09:45;;;;;;;16.27;10.00;;;15.70;90.30;;;15.16;83.65;98089.94;5044345;28;20506;-77
2023/09/09 02:12:13;;;;;;;13.87;10.50;;;15.40;90.70;;;14.95;84.69;98095.00;5043961;28;20469;-74
2023/09/09 02:14:42;;;;;;;14.13;10.30;;;15.20;91.00;;;14.72;86.00;98098.63;5060332;28;20461;-75
2023/09/09 02:17:09;;;;;;;13.23;11.17;;;14.90;91.60;;;14.54;87.26;98096.84;5046260;28;20531;-74
2023/09/09 02:19:37;;;;;;;15.13;11.30;;;14.80;92.10;;;14.38;88.11;98093.81;5047014;28;20470;-76
2023/09/09 02:22:05;;;;;;;15.47;9.70;;;14.60;92.60;;;14.03;88.90;98068.31;5047002;28;20466;-76
2023/09/09 02:24:32;;;;;;;16.70;10.97;;;14.50;93.00;;;13.97;90.29;98087.44;5047235;28;20467;-76
2023/09/09 02:27:02;;;;;;;11.63;10.53;;;14.40;93.80;;;13.90;91.81;98084.84;5047748;28;20447;-75
2023/09/09 02:29:29;;;;;;;15.30;11.37;;;14.30;94.50;;;13.93;91.75;98095.22;5046508;28;20458;-76
2023/09/09 02:31:58;;;;;;;13.90;11.07;;;14.20;94.80;;;13.66;92.58;98079.41;5044905;28;20446;-75
2023/09/09 02:34:25;;;;;;;13.37;11.00;;;14.20;94.80;;;13.79;93.06;98089.22;5046627;28;20455;-74
2023/09/09 02:37:16;;;;;;;16.00;11.57;;;14.10;95.30;;;13.57;93.15;98064.50;5045370;28;21313;-74
2023/09/09 02:39:45;;;;;;;13.40;11.40;;;14.10;95.30;;;13.48;94.14;98076.75;5042188;28;20464;-74
2023/09/09 02:42:14;;;;;;;13.40;10.50;;;14.00;95.70;;;13.50;94.85;98086.34;5044121;28;20868;-74
2023/09/09 02:44:41;;;;;;;14.90;11.20;;;13.90;96.00;;;13.51;94.94;98081.75;5041593;28;20474;-76
2023/09/09 02:47:12;;;;;;;14.47;11.10;;;13.80;96.40;;;13.25;95.37;98062.06;5044152;28;20994;-74
2023/09/09 02:49:40;;;;;;;17.97;11.00;;;13.80;96.70;;;13.31;96.06;98089.09;5040608;28;20455;-74
2023/09/09 02:52:08;;;;;;;20.40;11.90;;;13.60;96.80;;;13.20;96.99;98081.72;5037037;28;20458;-76
2023/09/09 02:54:36;;;;;;;16.10;11.80;;;13.60;97.90;;;13.27;96.85;98097.91;5040435;28;20469;-79
2023/09/09 02:57:04;;;;;;;17.83;11.90;;;13.50;98.60;;;13.00;96.97;98050.31;5034424;28;20473;-74
2023/09/09 02:59:33;;;;;;;14.87;10.70;;;13.50;98.60;;;13.09;97.56;98075.22;5043158;28;20449;-76
2023/09/09 03:02:00;;;;;;;17.70;12.77;;;13.50;98.90;;;13.18;98.08;98083.84;5032291;28;20806;-77
2023/09/09 03:04:29;;;;;;;16.93;12.87;;;13.40;99.40;;;13.09;97.91;98085.22;5037892;28;20562;-77
2023/09/09 03:06:56;;;;;;;18.77;12.37;;;13.40;99.50;;;13.20;97.86;98092.59;5038268;28;20473;-76
2023/09/09 03:09:23;;;;;;;17.90;11.23;;;13.50;99.60;;;13.18;98.20;98097.41;5036816;28;20514;-78
2023/09/09 03:11:52;;;;;;;15.17;12.13;;;13.50;99.30;;;13.09;97.78;98101.50;5042580;28;20954;-77
2023/09/09 03:14:19;;;;;;;13.93;11.60;;;13.40;98.90;;;13.04;98.47;98078.63;5039060;28;20445;-77
2023/09/09 03:16:47;;;;;;;15.33;12.30;;;13.40;99.40;;;13.03;98.64;98081.53;5033196;28;20535;-80
2023/09/09 03:19:14;;;;;;;22.20;13.07;;;13.40;99.70;;;13.09;98.49;98090.66;5037751;28;20514;-77
2023/09/09 03:21:42;;;;;;;17.57;11.70;;;13.40;99.90;;;12.93;98.69;98079.38;5038980;28;20480;-76
2023/09/09 03:24:09;;;;;;;14.20;12.70;;;13.30;99.70;;;12.99;99.23;98088.50;5044914;28;20481;-75
2023/09/09 03:26:37;;;;;;;17.40;13.00;;;13.30;99.90;;;13.07;99.42;98088.19;5034065;28;20456;-81
2023/09/09 03:29:04;;;;;;;16.80;11.70;;;13.30;99.90;;;13.07;98.94;98099.03;5038134;28;20464;-74
2023/09/09 03:31:31;;;;;;;13.60;12.13;;;13.30;99.90;;;13.03;99.30;98098.66;5036655;28;20468;-80
2023/09/09 03:33:58;;;;;;;14.40;12.60;;;13.30;99.90;;;12.93;99.90;98086.72;5035998;28;20455;-74
2023/09/09 03:36:26;;;;;;;15.73;11.90;;;13.30;99.90;;;12.97;100.00;98102.31;5038321;28;20453;-74
2023/09/09 03:38:54;;;;;;;15.57;12.10;;;13.30;99.90;;;12.96;100.00;98100.63;5032802;28;20477;-77
2023/09/09 03:41:22;;;;;;;20.23;12.97;;;13.30;99.90;;;12.96;100.00;98097.91;5037331;28;20930;-76
2023/09/09 03:43:49;;;;;;;16.93;11.77;;;13.30;99.90;;;13.02;100.00;98099.72;5037636;28;20480;-73
2023/09/09 03:46:16;;;;;;;14.13;11.53;;;13.30;99.90;;;12.98;100.00;98101.25;5039024;28;21026;-76
2023/09/09 03:48:44;;;;;;;15.87;12.97;;;13.30;99.90;;;12.85;100.00;98074.31;5041102;28;20452;-76
2023/09/09 03:51:11;;;;;;;15.50;12.70;;;13.30;99.90;;;12.98;99.92;98095.81;5035921;28;20469;-74
2023/09/09 03:53:38;;;;;;;14.23;12.73;;;13.30;99.90;;;12.86;100.00;98092.22;5033404;28;20464;-76
2023/09/09 03:56:07;;;;;;;13.50;10.93;;;13.20;99.90;;;12.82;100.00;98101.88;5035028;28;20458;-76
2023/09/09 03:58:34;;;;;;;12.17;10.83;;;13.10;99.90;;;12.71;100.00;98112.41;5041960;28;20523;-77
2023/09/09 04:01:06;;;;;;;19.53;11.97;;;12.90;99.90;;;12.64;100.00;98089.97;5036743;28;20441;-73
2023/09/09 04:03:34;;;;;;;14.40;11.27;;;12.90;99.90;;;12.84;100.00;98094.34;5039283;28;20483;-76
2023/09/09 04:06:05;;;;;;;15.87;13.00;;;12.90;99.90;;;12.88;100.00;98095.53;5043676;28;20809;-76
2023/09/09 04:08:33;;;;;;;13.50;12.10;;;13.00;99.90;;;12.78;100.00;98084.38;5036654;28;20444;-81
2023/09/09 04:11:01;;;;;;;13.10;11.43;;;13.00;99.90;;;12.79;100.00;98095.00;5040360;28;20917;-76
2023/09/09 04:13:29;;;;;;;14.77;12.60;;;13.00;99.90;;;12.75;100.00;98089.22;5043892;28;20791;-75
2023/09/09 04:15:58;;;;;;;16.77;12.37;;;12.90;99.90;;;12.82;100.00;98085.59;5044714;28;21012;-76
2023/09/09 04:18:26;;;;;;;12.70;11.37;;;13.00;99.90;;;12.78;100.00;98089.81;5043667;28;20945;-75
2023/09/09 04:20:53;;;;;;;14.10;11.67;;;13.00;99.90;;;12.71;100.00;98087.19;5044352;28;20480;-80
2023/09/09 04:23:21;;;;;;;12.63;11.30;;;13.00;99.90;;;12.82;100.00;98102.69;5042380;28;21020;-78
2023/09/09 04:25:48;;;;;;;12.50;11.30;;;13.00;99.90;;;12.79;100.00;98099.59;5044999;28;20468;-77
2023/09/09 04:28:15;;;;;;;17.60;12.20;;;13.00;99.90;;;12.79;100.00;98096.88;5044309;28;20474;-76
2023/09/09 04:30:45;;;;;;;19.90;11.67;;;13.00;99.90;;;12.86;100.00;98108.50;5049839;28;20440;-80
2023/09/09 04:33:13;;;;;;;13.43;12.13;;;13.10;99.90;;;12.92;100.00;98107.56;5046666;28;20875;-75
2023/09/09 04:35:42;;;;;;;15.33;12.60;;;13.20;99.90;;;12.93;100.00;98102.97;5049039;28;20508;-75
2023/09/09 04:38:10;;;;;;;14.17;11.37;;;13.20;99.90;;;12.89;100.00;98099.91;5048867;28;20526;-78
2023/09/09 04:40:41;;;;;;;13.40;12.00;;;13.20;99.90;;;12.74;100.00;98084.03;5048356;28;20461;-76
2023/09/09 04:43:08;;;;;;;15.53;13.13;;;13.20;99.90;;;12.82;100.00;98102.69;5047624;28;20989;-76
2023/09/09 04:45:35;;;;;;;13.60;11.97;;;13.10;99.90;;;12.79;100.00;98092.31;5047373;28;20468;-76
2023/09/09 04:48:05;;;;;;;13.20;11.90;;;13.20;99.90;;;12.73;100.00;98106.75;5048065;28;20438;-75
2023/09/09 04:50:33;;;;;;;15.63;11.23;;;13.20;99.90;;;12.51;100.00;98090.97;5049517;28;20988;-75
2023/09/09 04:53:02;;;;;;;13.23;11.93;;;13.10;99.90;;;12.61;100.00;98101.28;5047382;28;20454;-76
2023/09/09 04:55:29;;;;;;;14.07;12.07;;;13.10;99.90;;;12.67;100.00;98104.97;5045893;28;20459;-80
2023/09/09 04:57:57;;;;;;;13.53;11.33;;;13.10;99.90;;;12.74;99.99;98111.97;5052642;28;20530;-79
2023/09/09 05:00:25;;;;;;;14.70;13.23;;;13.10;99.90;;;12.72;100.00;98111.34;5037666;28;20761;-78
2023/09/09 05:02:52;;;;;;;14.43;12.97;;;13.20;99.70;;;12.91;99.12;98111.34;5044172;28;20457;-76
2023/09/09 05:05:21;;;;;;;12.10;10.60;;;13.30;99.30;;;13.14;97.08;98104.38;5046724;28;21030;-78
2023/09/09 05:07:48;;;;;;;11.57;10.30;;;13.60;98.00;;;13.57;94.35;98110.66;5045998;28;20483;-76
2023/09/09 05:10:16;;;;;;;12.23;10.93;;;14.00;96.10;;;13.55;91.89;98094.59;5044663;28;20526;-77
2023/09/09 05:12:43;;;;;;;12.30;10.77;;;14.30;93.60;;;13.28;92.75;98054.28;5037313;28;20931;-73
2023/09/09 05:15:13;;;;;;;11.37;10.27;;;14.30;93.10;;;13.96;90.02;98123.81;5044339;28;20449;-77
2023/09/09 05:17:40;;;;;;;11.83;10.60;;;14.60;92.20;;;14.36;87.78;98116.84;5040627;28;20546;-76
2023/09/09 05:20:08;;;;;;;12.30;10.57;;;15.00;91.60;;;14.47;86.68;98120.59;5039010;28;20465;-74
2023/09/09 05:22:37;;;;;;;16.00;10.67;;;15.20;90.70;;;14.27;85.80;98121.81;5046861;28;20468;-78
2023/09/09 05:25:05;;;;;;;11.03;10.03;;;15.20;90.10;;;13.94;88.44;98123.22;5045993;28;20526;-76
2023/09/09 05:27:33;;;;;;;15.43;10.77;;;14.80;90.60;;;13.58;90.55;98115.03;5045923;28;20454;-75
2023/09/09 05:30:00;;;;;;;11.53;10.37;;;14.30;91.40;;;13.36;92.67;98117.41;5043618;28;20496;-74
2023/09/09 05:32:27;;;;;;;11.50;10.40;;;14.00;92.80;;;13.17;93.08;98114.75;5041754;28;20458;-75
2023/09/09 05:34:55;;;;;;;15.03;10.30;;;13.80;93.50;;;13.35;94.03;98127.44;5043247;28;20592;-77
2023/09/09 05:37:22;;;;;;;13.37;11.40;;;13.70;94.60;;;13.41;93.53;98122.97;5037801;28;20540;-80
2023/09/09 05:39:50;;;;;;;15.20;11.17;;;13.80;95.00;;;13.78;95.22;98117.44;5040055;28;20449;-79
2023/09/09 05:42:18;;;;;;;11.67;10.43;;;13.90;95.30;;;14.21;92.12;98112.72;5038185;28;20452;-77
2023/09/09 05:44:45;;;;;;;11.10;9.97;;;14.30;95.40;;;14.69;87.19;98132.53;5034437;28;20474;-77
2023/09/09 05:47:12;;;;;;;11.43;10.00;;;14.80;93.00;;;15.14;84.46;98102.97;5039895;28;20441;-76
2023/09/09 05:49:39;;;;;;;10.83;9.83;;;15.30;92.20;;;14.96;83.36;98121.16;5039373;28;20465;-75
2023/09/09 05:52:07;;;;;;;10.73;9.63;;;15.30;91.00;;;14.32;84.69;98102.91;5038485;28;20449;-84
2023/09/09 05:54:35;;;;;;;10.30;9.20;;;15.00;90.50;;;14.16;84.79;98067.22;5043979;28;20474;-85
2023/09/09 05:57:04;;;;;;;9.43;8.53;;;14.80;90.80;;;14.55;84.64;98136.56;5041062;28;20447;-86
2023/09/09 05:59:31;;;;;;;11.43;10.20;;;14.80;91.00;;;14.61;84.84;98138.31;5042109;28;20511;-86
2023/09/09 06:01:59;;;;;;;11.10;9.90;;;14.90;91.00;;;14.71;85.47;98133.16;5042524;28;20812;-84
2023/09/09 06:04:26;;;;;;;11.03;9.57;;;14.90;91.10;;;14.72;83.37;98134.78;5055846;28;20549;-88
2023/09/09 06:06:53;;;;;;;11.60;9.47;;;15.10;90.90;;;14.81;83.31;98153.47;5040199;28;20470;-85
2023/09/09 06:09:20;;;;;;;10.40;9.30;;;15.10;90.70;;;15.01;83.63;98137.56;5038817;28;20513;-81
2023/09/09 06:11:47;;;;;;;10.00;8.90;;;15.20;90.70;;;14.95;82.26;98132.25;5047773;28;20442;-84
2023/09/09 06:14:16;;;;;;;11.10;10.00;;;15.30;90.30;;;14.87;83.79;98144.34;5048678;28;20465;-81
2023/09/09 06:16:43;;;;;;;11.60;10.60;;;15.10;90.50;;;14.61;84.07;98129.34;5038176;28;20523;-76
2023/09/09 06:19:10;;;;;;;11.00;9.50;;;15.10;90.30;;;14.40;84.87;98112.56;5040038;28;21029;-77
2023/09/09 06:21:38;;;;;;;11.90;9.47;;;15.00;90.60;;;14.71;84.23;98148.63;5035298;28;20472;-76
2023/09/09 06:24:06;;;;;;;10.33;9.33;;;15.00;90.60;;;14.56;85.13;98139.06;5037080;28;20491;-77
2023/09/09 06:26:34;;;;;;;10.10;9.20;;;15.00;90.70;;;14.72;84.77;98139.41;5039056;28;20450;-78
2023/09/09 06:29:01;;;;;;;11.90;10.53;;;15.10;90.80;;;14.71;84.51;98138.59;5042018;28;20519;-75
2023/09/09 06:31:30;;;;;;;12.17;10.90;;;15.20;90.70;;;14.93;83.55;98156.97;5039746;28;20460;-76
2023/09/09 06:33:57;;;;;;;11.70;10.53;;;15.20;90.50;;;15.08;82.55;98136.56;5040607;28;20468;-77
2023/09/09 06:36:24;;;;;;;10.13;9.13;;;15.40;90.40;;;15.32;81.22;98152.84;5047702;28;20444;-77
2023/09/09 06:38:52;;;;;;;11.63;10.27;;;15.50;90.20;;;15.41;81.26;98146.75;5045964;28;20849;-76
2023/09/09 06:41:19;;;;;;;11.13;10.03;;;15.60;90.10;;;15.50;80.56;98149.09;5040909;28;20807;-77
2023/09/09 06:43:47;;;;;;;10.43;9.40;;;15.70;89.80;;;15.60;80.49;98159.34;5045680;28;20456;-76
2023/09/09 06:46:14;;;;;;;14.40;9.90;;;15.80;89.70;;;15.75;79.70;98150.59;5041693;28;20834;-77
2023/09/09 06:48:43;;;;;;;10.50;9.60;;;16.00;89.50;;;15.78;79.62;98150.94;5044991;28;20807;-78
2023/09/09 06:51:10;;;;;;;10.90;9.80;;;16.10;89.40;;;15.88;79.82;98155.72;5037177;28;21152;-77
2023/09/09 06:53:38;;;;;;;11.73;10.63;;;16.10;89.30;;;16.11;78.87;98159.41;5034413;28;20463;-77
2023/09/09 06:56:05;;;;;;;11.90;10.60;;;16.30;89.20;;;16.29;78.16;98155.56;5036894;28;20482;-76
2023/09/09 06:58:32;;;;;;;10.50;9.50;;;16.50;88.90;;;16.33;77.57;98156.75;5038994;28;20465;-76
2023/09/09 07:00:59;;;;;;;10.43;9.53;;;16.60;88.50;;;16.06;77.14;98108.38;5051254;28;20549;-75
2023/09/09 07:03:26;;;;;;;10.70;9.60;;;16.70;88.20;;;16.48;77.54;98153.41;5039476;28;20450;-75
2023/09/09 07:05:55;;;;;;;11.53;9.07;;;16.80;88.20;;;16.64;76.97;98154.47;5043383;28;20473;-76
2023/09/09 07:08:22;;;;;;;10.77;9.67;;;16.90;88.20;;;16.75;76.21;98158.16;5034590;28;20446;-76
2023/09/09 07:10:50;;;;;;;10.13;9.23;;;17.00;87.80;;;16.79;75.33;98139.38;5042944;28;20468;-80
2023/09/09 07:13:18;;;;;;;10.70;9.80;;;17.10;87.50;;;17.07;75.28;98164.88;5036322;28;20536;-78
2023/09/09 07:15:46;;;;;;;10.13;9.13;;;17.20;87.50;;;17.24;74.07;98159.31;5038861;28;20468;-77
2023/09/09 07:18:13;;;;;;;10.47;9.57;;;17.40;87.00;;;17.36;73.53;98161.88;5036476;28;20581;-77
2023/09/09 07:20:42;;;;;;;10.03;9.10;;;17.50;86.80;;;17.38;73.96;98160.56;5039916;28;20545;-75
2023/09/09 07:23:10;;;;;;;11.00;9.87;;;17.60;86.90;;;17.50;73.43;98149.47;5043408;28;20462;-73
2023/09/09 07:25:37;;;;;;;11.33;10.03;;;17.70;86.60;;;17.69;72.93;98158.16;5040800;28;20489;-73
2023/09/09 07:28:05;;;;;;;10.23;9.20;;;17.90;86.60;;;17.81;72.50;98152.50;5038081;28;20461;-77
2023/09/09 07:30:33;;;;;;;11.63;9.23;;;17.90;86.40;;;18.10;71.72;98148.69;5040465;28;20517;-74
2023/09/09 07:33:01;;;;;;;9.27;8.30;;;18.10;86.20;;;18.06;71.55;98159.31;5035615;28;20447;-78
2023/09/09 07:35:28;;;;;;;13.47;9.33;;;18.30;85.90;;;18.07;71.62;98154.69;5036936;28;20539;-74
2023/09/09 07:37:55;;;;;;;10.17;9.13;;;18.50;85.50;;;17.98;71.96;98159.78;5032428;28;20493;-78
2023/09/09 07:40:24;;;;;;;10.07;9.07;;;18.50;85.50;;;18.32;70.87;98145.00;5037051;28;20471;-76
2023/09/09 07:42:53;;;;;;;10.47;9.50;;;18.60;85.10;;;18.37;70.50;98123.97;5034934;28;20845;-76
2023/09/09 07:45:20;;;;;;;11.77;10.67;;;18.70;85.10;;;18.73;69.44;98158.09;5039954;28;20601;-75
2023/09/09 07:47:47;;;;;;;10.07;9.13;;;18.90;84.90;;;18.79;68.60;98148.84;5036376;28;20543;-75
2023/09/09 07:50:14;;;;;;;10.03;9.13;;;19.00;84.20;;;18.82;68.69;98159.25;5039476;28;20460;-75
2023/09/09 07:52:42;;;;;;;9.83;8.93;;;19.10;84.10;;;18.53;68.85;98102.19;5048626;28;20985;-75
2023/09/09 07:55:10;;;;;;;10.20;9.30;;;19.10;84.30;;;19.08;68.38;98151.19;5037357;28;20459;-76
2023/09/09 07:57:39;;;;;;;9.70;8.77;;;19.30;84.40;;;18.96;67.63;98133.03;5038332;28;20477;-77
2023/09/09 08:00:08;;;;;;;9.97;8.97;;;19.40;83.60;;;19.21;67.75;98156.16;5034295;28;20950;-75
2023/09/09 08:02:36;;;;;;;9.70;8.80;;;19.40;83.50;;;19.35;67.64;98158.41;5032381;28;20455;-78
2023/09/09 08:05:06;;;;;;;9.37;8.57;;;19.60;83.60;;;19.40;66.66;98152.94;5032852;28;21766;-77
2023/09/09 08:07:33;;;;;;;10.00;9.10;;;19.70;83.10;;;19.62;66.40;98157.34;5035246;28;20705;-76
2023/09/09 08:10:01;;;;;;;10.73;9.70;;;19.80;82.80;;;19.72;66.58;98154.63;5037217;28;21532;-75
2023/09/09 08:12:28;;;;;;;10.80;9.23;;;19.90;83.00;;;19.89;65.71;98143.41;5042937;28;20462;-78
2023/09/09 08:15:07;;;;;;;11.10;10.00;;;20.10;82.90;;;20.03;64.40;98138.22;5045659;28;20442;-76
2023/09/09 08:17:34;;;;;;;9.63;8.73;;;20.20;82.00;;;20.20;64.07;98145.34;5041792;28;20963;-75
2023/09/09 08:20:06;;;;;;;9.90;9.00;;;20.30;81.80;;;20.31;63.84;98159.84;5033712;28;20788;-75
2023/09/09 08:22:34;;;;;;;10.83;9.57;;;20.40;81.30;;;20.35;63.81;98148.06;5039248;28;20536;-75
2023/09/09 08:25:02;;;;;;;10.13;9.20;;;20.50;81.40;;;20.55;63.48;98153.81;5040496;28;20943;-75
2023/09/09 08:27:29;;;;;;;10.73;9.73;;;20.60;81.40;;;20.55;63.20;98154.63;5036024;28;20477;-74
2023/09/09 08:29:57;;;;;;;11.80;10.70;;;20.70;81.10;;;20.69;63.03;98156.78;5042598;28;20468;-73
2023/09/09 08:32:26;;;;;;;10.57;9.47;;;20.80;81.00;;;20.72;62.83;98142.50;5039204;28;20446;-73
2023/09/09 08:34:54;;;;;;;10.03;9.10;;;21.00;80.90;;;21.14;61.32;98155.00;5043188;28;20450;-73
2023/09/09 08:37:21;;;;;;;9.90;9.00;;;21.10;80.20;;;21.30;60.94;98160.41;5041643;28;20568;-72
2023/09/09 08:39:54;;;;;;;10.17;9.10;;;21.30;80.00;;;20.60;61.85;98091.50;5041714;28;20459;-73
2023/09/09 08:42:32;;;;;;;12.20;10.07;;;21.40;79.90;;;20.98;61.62;98158.91;5023565;28;20464;-74
2023/09/09 08:45:09;;;;;;;10.83;9.33;;;21.50;79.60;;;20.98;61.62;98150.66;5041659;28;20889;-75
2023/09/09 08:47:40;;;;;;;10.77;9.73;;;21.50;79.40;;;21.17;61.70;98159.09;5040347;28;20455;-74
2023/09/09 08:50:10;;;;;;;10.77;9.60;;;21.60;79.50;;;21.36;60.78;98164.78;5042292;28;20468;-74
2023/09/09 08:52:38;;;;;;;9.87;8.97;;;21.60;79.00;;;21.46;61.15;98159.25;5041527;28;20518;-74
2023/09/09 08:55:06;;;;;;;11.10;10.10;;;21.60;79.30;;;21.63;61.00;98161.59;5040093;28;20449;-75
2023/09/09 08:57:33;;;;;;;10.50;9.50;;;21.80;79.50;;;21.68;59.97;98135.22;5043540;28;20501;-73
2023/09/09 09:00:04;;;;;;;10.13;9.27;;;22.00;79.00;;;21.86;59.56;98152.94;5038125;28;20513;-73
2023/09/09 09:02:34;;;;;;;9.60;8.70;;;22.10;78.60;;;21.91;59.81;98161.16;5039931;28;20492;-76
2023/09/09 09:05:05;;;;;;;10.57;9.57;;;22.10;78.50;;;22.22;58.81;98155.44;5042421;28;20457;-74
2023/09/09 09:07:35;;;;;;;11.03;9.80;;;22.30;78.30;;;22.27;58.75;98160.03;5031251;28;20465;-75
2023/09/09 09:10:02;;;;;;;12.20;9.60;;;22.40;78.00;;;21.01;58.44;97966.13;5037313;28;20523;-74
2023/09/09 09:12:32;;;;;;;10.47;9.40;;;22.50;77.60;;;22.20;59.02;98161.22;5039181;28;20471;-82
2023/09/09 09:14:59;;;;;;;10.47;9.50;;;22.40;77.70;;;22.32;58.52;98151.75;5043000;28;20938;-80
2023/09/09 09:17:26;;;;;;;9.80;8.90;;;22.50;77.50;;;22.48;58.18;98156.03;5056749;28;20530;-78
2023/09/09 09:19:54;;;;;;;9.60;8.80;;;22.60;77.30;;;22.72;57.43;98151.66;5073285;28;20464;-79
2023/09/09 09:22:24;;;;;;;8.60;7.80;;;22.80;77.20;;;22.90;57.00;98159.16;5059748;28;20480;-80
2023/09/09 09:24:51;;;;;;;8.53;7.73;;;22.90;76.90;;;22.99;56.53;98155.75;5060259;28;20573;-80
2023/09/09 09:27:18;;;;;;;11.43;9.20;;;23.10;76.50;;;22.66;55.94;98097.75;5048690;28;20478;-81
2023/09/09 09:29:47;;;;;;;11.07;8.83;;;23.20;76.00;;;23.08;56.54;98153.16;5044607;28;20450;-80
2023/09/09 09:32:16;;;;;;;9.37;8.40;;;23.20;76.10;;;23.17;56.37;98141.19;5043090;28;20540;-79
2023/09/09 09:34:44;;;;;;;9.20;8.30;;;23.30;76.50;;;23.40;55.34;98155.25;5044488;28;20465;-78
2023/09/09 09:37:12;;;;;;;9.70;8.40;;;23.40;75.60;;;23.47;55.34;98132.81;5036115;28;20503;-77
2023/09/09 09:39:40;;;;;;;9.73;8.90;;;23.50;75.40;;;23.61;54.81;98149.44;5053067;28;20460;-77
2023/09/09 09:42:12;;;;;;;9.03;8.13;;;23.60;75.10;;;23.44;54.26;98150.78;5056589;28;20520;-78
2023/09/09 09:44:39;;;;;;;10.00;9.00;;;23.60;74.10;;;23.45;54.98;98143.31;5049633;28;20488;-79
2023/09/09 09:47:10;;;;;;;10.30;9.40;;;23.60;74.60;;;23.37;55.34;98131.03;5046407;28;20488;-78
2023/09/09 09:49:40;;;;;;;9.43;8.53;;;23.60;74.80;;;23.77;54.46;98152.78;5038743;28;20460;-78
2023/09/09 09:52:09;;;;;;;9.97;8.87;;;23.70;74.60;;;23.87;54.07;98146.28;5040396;28;20591;-77
2023/09/09 09:54:38;;;;;;;9.50;8.60;;;23.80;74.40;;;23.82;54.20;98127.06;5041771;28;20461;-77
2023/09/09 09:57:07;;;;;;;11.17;8.60;;;23.80;74.20;;;23.98;54.08;98136.72;5038860;28;20489;-78
2023/09/09 09:59:35;;;;;;;11.20;8.77;;;23.90;74.20;;;24.13;53.22;98143.97;5042465;28;20949;-79
2023/09/09 10:02:04;;;;;;;8.90;8.10;;;24.00;73.60;;;24.26;52.91;98131.31;5044417;28;20454;-73
2023/09/09 10:04:39;;;;;;;8.93;8.07;;;24.20;73.50;;;24.20;52.78;98115.97;5042051;28;20482;-77
2023/09/09 10:07:11;;;;;;;9.60;8.70;;;24.20;73.30;;;24.29;52.40;98130.72;5047897;28;20497;-77
2023/09/09 10:09:48;;;;;;;9.10;8.30;;;24.30;72.70;;;24.24;52.29;98139.09;5048742;28;20465;-78
2023/09/09 10:12:24;;;;;;;9.43;8.30;;;24.20;72.40;;;24.27;52.69;98135.72;5055994;28;20855;-77
2023/09/09 10:14:54;;;;;;;10.23;9.23;;;24.30;72.50;;;24.02;52.18;98135.03;5044826;28;20461;-79